Terminal Aerodrome Forecast
Issued by NWS

Home | Current Version | Previous Version | Text Only | Print | Product List | Glossary On
Versions: 1 2 3 4 5 6 7 8 9 10 11 12
335
FTUS45 KTFX 241139
TAFHVR
TAF
KHVR 241139Z 2412/2512 24015KT P6SM FEW200
     FM241400 24025G40KT P6SM FEW110 SCT200
     FM241700 25035G50KT P6SM SCT110
     FM250200 27030G45KT P6SM VCSH BKN080
     FM250600 29025G40KT P6SM -SHRA SCT010 OVC025=

USA.gov is the U.S. government's official web portal to all federal, state and local government web resources and services.